createdAt,value
2017-03-12T00:00:00.749Z,17.62
2017-03-12T00:00:26.291Z,17.66
2017-03-12T00:00:51.856Z,17.63
2017-03-12T05:00:19.166Z,17.35
2017-03-12T05:00:44.743Z,17.44
2017-03-12T05:01:10.310Z,17.46
2017-03-12T05:01:35.858Z,17.44
2017-03-12T05:02:01.411Z,17.46
2017-03-12T05:02:26.972Z,17.41
2017-03-12T05:02:53.241Z,17.41
2017-03-12T05:03:18.851Z,17.46
2017-03-12T05:03:44.441Z,17.38
2017-03-12T05:04:10.004Z,17.44
2017-03-12T05:04:35.547Z,17.43
2017-03-12T05:05:01.117Z,17.43
2017-03-12T05:05:26.663Z,17.43
2017-03-12T05:05:52.250Z,17.4
2017-03-12T05:06:17.870Z,17.46
2017-03-12T05:06:44.241Z,17.46
2017-03-12T05:07:08.992Z,17.46
2017-03-12T05:07:34.542Z,17.46
2017-03-12T05:08:00.078Z,17.4
2017-03-12T05:08:25.621Z,17.48
2017-03-12T05:08:51.190Z,17.46
2017-03-12T05:09:16.750Z,17.4
2017-03-12T05:09:42.321Z,17.46
2017-03-12T05:10:07.951Z,17.44
2017-03-12T05:10:33.507Z,17.46
2017-03-12T05:10:59.117Z,17.46
2017-03-12T05:11:24.684Z,17.46
2017-03-12T05:11:50.236Z,17.43
2017-03-12T05:12:15.789Z,17.41
2017-03-12T05:12:41.353Z,17.43
2017-03-12T05:13:07.746Z,17.4
2017-03-12T05:13:32.493Z,17.44
2017-03-12T05:13:58.049Z,17.46
2017-03-12T05:14:23.740Z,17.43
2017-03-12T05:14:49.359Z,17.43
2017-03-12T05:15:14.947Z,17.46
2017-03-12T05:15:40.522Z,17.48
2017-03-12T05:16:06.091Z,17.43
2017-03-12T05:16:31.704Z,17.43
2017-03-12T05:16:57.322Z,17.43
2017-03-12T05:17:22.879Z,17.36
2017-03-12T05:17:48.467Z,17.44
2017-03-12T05:18:14.040Z,17.47
2017-03-12T05:18:39.600Z,17.38
2017-03-12T05:19:05.160Z,17.46
2017-03-12T05:19:30.709Z,17.44
2017-03-12T05:19:56.281Z,17.46
2017-03-12T05:20:21.930Z,17.38
2017-03-12T05:20:47.488Z,17.43
2017-03-12T05:21:13.062Z,17.43
2017-03-12T05:21:38.660Z,17.41
2017-03-12T05:22:04.240Z,17.43
2017-03-12T05:22:29.788Z,17.43
2017-03-12T05:22:55.428Z,17.44
2017-03-12T05:23:21.060Z,17.43
2017-03-12T05:23:46.628Z,17.43
2017-03-12T05:24:12.199Z,17.41
2017-03-12T05:24:37.799Z,17.41
2017-03-12T05:25:03.357Z,17.41
2017-03-12T05:25:28.939Z,17.43
2017-03-12T05:25:55.396Z,17.46
2017-03-12T05:26:21.747Z,17.41
2017-03-12T05:26:46.527Z,17.43
2017-03-12T05:27:12.922Z,17.43
2017-03-12T05:27:38.482Z,17.44
2017-03-12T05:28:04.058Z,17.43
2017-03-12T05:28:29.630Z,17.41
2017-03-12T05:28:55.190Z,17.46
2017-03-12T05:29:20.780Z,17.43
2017-03-12T05:29:46.318Z,17.36
2017-03-12T05:30:12.753Z,17.41
2017-03-12T05:30:38.457Z,17.44
2017-03-12T05:31:04.007Z,17.43
2017-03-12T05:31:29.555Z,17.44
2017-03-12T05:31:55.115Z,17.43
2017-03-12T05:32:20.663Z,17.4
2017-03-12T05:32:46.218Z,17.41
2017-03-12T05:33:11.774Z,17.43
2017-03-12T05:33:37.328Z,17.43
2017-03-12T05:34:02.869Z,17.43
2017-03-12T05:34:28.607Z,17.44
2017-03-12T05:34:54.156Z,17.38
2017-03-12T05:35:19.707Z,17.43
2017-03-12T05:35:45.269Z,17.46
2017-03-12T05:36:10.815Z,17.43
2017-03-12T05:36:36.441Z,17.4
2017-03-12T05:37:02.013Z,17.41
2017-03-12T05:37:27.580Z,17.4
2017-03-12T05:37:53.153Z,17.43
2017-03-12T05:38:18.711Z,17.4
2017-03-12T05:38:44.279Z,17.46
2017-03-12T05:39:09.842Z,17.38
2017-03-12T05:39:35.399Z,17.43
2017-03-12T05:40:00.959Z,17.4
2017-03-12T05:40:27.150Z,17.43
2017-03-12T05:40:52.702Z,17.4
2017-03-12T05:41:18.368Z,17.4
2017-03-12T05:41:43.939Z,17.35
2017-03-12T05:42:09.481Z,17.38
2017-03-12T05:42:35.011Z,17.4
2017-03-12T05:43:00.583Z,17.4
2017-03-12T05:43:26.161Z,17.4
2017-03-12T05:43:51.749Z,17.41
2017-03-12T05:44:17.310Z,17.41
2017-03-12T05:44:42.874Z,17.4
2017-03-12T05:45:08.471Z,17.46
2017-03-12T05:45:34.033Z,17.38
2017-03-12T05:46:00.152Z,17.38
2017-03-12T05:46:25.723Z,17.38
2017-03-12T05:46:52.292Z,17.44
2017-03-12T05:47:17.952Z,17.43
2017-03-12T05:47:43.521Z,17.4
2017-03-12T05:48:09.078Z,17.46
2017-03-12T05:48:34.663Z,17.4
2017-03-12T05:49:01.261Z,17.44
2017-03-12T05:49:25.920Z,17.38
2017-03-12T05:49:51.651Z,17.38
2017-03-12T05:50:17.221Z,17.4
2017-03-12T05:50:42.792Z,17.43
2017-03-12T05:51:08.333Z,17.36
2017-03-12T05:51:34.086Z,17.38
2017-03-12T05:51:59.647Z,17.36
2017-03-12T05:52:25.206Z,17.38
2017-03-12T05:52:50.778Z,17.43
2017-03-12T05:53:16.344Z,17.41
2017-03-12T05:53:41.923Z,17.4
2017-03-12T05:54:07.498Z,17.44
2017-03-12T05:54:33.069Z,17.33
2017-03-12T05:54:58.631Z,17.44
2017-03-12T05:55:24.192Z,17.43
2017-03-12T05:55:49.744Z,17.35
2017-03-12T05:56:15.318Z,17.38
2017-03-12T05:56:40.881Z,17.36
2017-03-12T05:57:06.438Z,17.36
2017-03-12T05:57:32.009Z,17.35
2017-03-12T05:57:57.659Z,17.41
2017-03-12T05:58:23.219Z,17.38
2017-03-12T05:58:48.824Z,17.35
2017-03-12T05:59:14.392Z,17.38
2017-03-12T05:59:39.959Z,17.41
2017-03-12T06:00:05.578Z,17.36
2017-03-12T06:00:31.141Z,17.38
2017-03-12T06:00:56.712Z,17.36
2017-03-12T06:01:22.290Z,17.36
2017-03-12T06:01:47.916Z,17.4
2017-03-12T06:02:13.488Z,17.4
2017-03-12T06:02:39.056Z,17.46
2017-03-12T06:03:05.267Z,17.36
2017-03-12T06:03:30.217Z,17.38
2017-03-12T06:03:55.800Z,17.4
2017-03-12T06:04:21.369Z,17.4
2017-03-12T06:04:46.922Z,17.38
2017-03-12T06:05:12.499Z,17.35
2017-03-12T06:05:38.119Z,17.4
2017-03-12T06:06:03.684Z,17.38
2017-03-12T06:06:29.248Z,17.35
2017-03-12T06:06:54.799Z,17.36
2017-03-12T06:07:20.351Z,17.38
2017-03-12T06:07:45.930Z,17.41
2017-03-12T06:08:11.508Z,17.36
2017-03-12T06:08:37.070Z,17.38
2017-03-12T06:09:02.649Z,17.41
2017-03-12T06:09:28.208Z,17.41
2017-03-12T06:09:53.777Z,17.36
2017-03-12T06:10:19.449Z,17.36
2017-03-12T06:10:45.023Z,17.35
2017-03-12T06:11:10.589Z,17.35
2017-03-12T06:11:58.689Z,17.36
2017-03-12T06:12:25.725Z,17.35
2017-03-12T06:14:34.883Z,17.36
2017-03-12T06:15:00.449Z,17.36
2017-03-12T06:15:25.987Z,17.35
2017-03-12T06:15:51.541Z,17.33
2017-03-12T06:16:17.648Z,17.43
2017-03-12T06:16:42.634Z,17.41
2017-03-12T06:17:08.206Z,17.41
2017-03-12T06:17:33.745Z,17.36
2017-03-12T06:17:59.289Z,17.4
2017-03-12T06:18:24.842Z,17.33
2017-03-12T06:18:50.378Z,17.32
2017-03-12T06:19:15.947Z,17.33
2017-03-12T06:20:14.335Z,17.36
2017-03-12T06:22:29.974Z,17.29
2017-03-12T06:22:55.550Z,17.41
2017-03-12T06:23:21.108Z,17.33
2017-03-12T06:23:46.670Z,17.4
2017-03-12T06:24:12.236Z,17.36
2017-03-12T06:24:38.738Z,17.46
2017-03-12T06:25:03.360Z,17.4
2017-03-12T06:25:28.920Z,17.35
2017-03-12T06:25:54.465Z,17.44
2017-03-12T06:26:20.021Z,17.35
2017-03-12T06:26:45.596Z,17.33
2017-03-12T06:27:11.138Z,17.36
2017-03-12T06:27:36.681Z,17.46
2017-03-12T06:28:02.239Z,17.33
2017-03-12T06:28:27.790Z,17.35
2017-03-12T06:28:53.349Z,17.32
2017-03-12T06:29:18.901Z,17.26
2017-03-12T06:29:44.669Z,17.41
2017-03-12T06:30:10.222Z,17.4
2017-03-12T06:30:35.778Z,17.41
2017-03-12T06:31:02.948Z,17.4
2017-03-12T06:31:28.522Z,17.43
2017-03-12T06:31:54.075Z,17.43
2017-03-12T06:32:19.646Z,17.36
2017-03-12T06:32:45.200Z,17.4
2017-03-12T06:33:10.752Z,17.41
2017-03-12T06:33:36.323Z,17.41
2017-03-12T06:34:01.943Z,17.3
2017-03-12T06:34:27.510Z,17.41
2017-03-12T06:34:53.069Z,17.33
2017-03-12T06:35:18.636Z,17.26
2017-03-12T06:35:44.177Z,17.32
2017-03-12T06:36:09.746Z,17.3
2017-03-12T06:36:35.290Z,17.3
2017-03-12T06:37:00.841Z,17.28
2017-03-12T06:37:26.391Z,17.41
2017-03-12T06:37:52.600Z,17.35
2017-03-12T06:38:18.156Z,17.35
2017-03-12T06:38:43.721Z,17.4
2017-03-12T06:39:09.258Z,17.38
2017-03-12T06:39:34.819Z,17.41
2017-03-12T06:40:00.347Z,17.41
2017-03-12T06:40:25.910Z,17.33
2017-03-12T06:40:51.566Z,17.33
2017-03-12T06:41:17.122Z,17.36
2017-03-12T06:41:42.682Z,17.33
2017-03-12T06:42:08.240Z,17.28
2017-03-12T06:42:33.792Z,17.41
2017-03-12T06:42:59.378Z,17.36
2017-03-12T06:43:24.946Z,17.36
2017-03-12T06:43:50.494Z,17.28
2017-03-12T06:44:16.060Z,17.4
2017-03-12T06:44:41.632Z,17.32
2017-03-12T06:45:07.192Z,17.32
2017-03-12T06:45:32.730Z,17.41
2017-03-12T06:45:58.278Z,17.38
2017-03-12T06:46:23.825Z,17.41
2017-03-12T06:46:49.369Z,17.38
2017-03-12T06:47:14.909Z,17.35
2017-03-12T06:47:40.460Z,17.38
2017-03-12T06:48:06.019Z,17.4
2017-03-12T06:48:31.564Z,17.32
2017-03-12T06:48:57.110Z,17.29
2017-03-12T06:49:22.637Z,17.43
2017-03-12T06:49:48.192Z,17.38
2017-03-12T06:50:13.769Z,17.28
2017-03-12T06:50:39.323Z,17.28
2017-03-12T06:51:04.851Z,17.38
2017-03-12T06:51:30.405Z,17.36
2017-03-12T06:51:55.968Z,17.28
2017-03-12T06:52:21.578Z,17.41
2017-03-12T06:52:47.237Z,17.43
2017-03-12T06:53:12.821Z,17.4
2017-03-12T06:53:38.379Z,17.28
2017-03-12T06:54:03.927Z,17.28
2017-03-12T06:54:29.510Z,17.35
2017-03-12T06:54:55.062Z,17.33
2017-03-12T06:55:20.641Z,17.35
2017-03-12T06:55:46.189Z,17.32
2017-03-12T06:56:11.737Z,17.29
2017-03-12T06:56:37.331Z,17.28
2017-03-12T06:57:02.877Z,17.32
2017-03-12T06:57:28.428Z,17.32
2017-03-12T06:57:54.003Z,17.28
2017-03-12T06:58:19.579Z,17.38
2017-03-12T06:58:45.135Z,17.41
2017-03-12T06:59:10.687Z,17.32
2017-03-12T06:59:36.279Z,17.32
2017-03-12T07:00:01.849Z,17.35
2017-03-12T07:00:55.142Z,17.32
2017-03-12T07:01:20.700Z,17.32
2017-03-12T07:01:46.252Z,17.32
2017-03-12T07:02:11.801Z,17.29
2017-03-12T07:02:37.930Z,17.29
2017-03-12T07:03:03.491Z,17.28
2017-03-12T07:03:29.059Z,17.4
2017-03-12T07:03:54.623Z,17.29
2017-03-12T07:04:20.185Z,17.3
2017-03-12T07:04:45.777Z,17.4
2017-03-12T07:05:12.052Z,17.29
2017-03-12T07:05:36.913Z,17.28
2017-03-12T07:06:02.692Z,17.3
2017-03-12T07:06:28.247Z,17.22
2017-03-12T07:06:53.810Z,17.25
2017-03-12T07:07:19.379Z,17.29
2017-03-12T07:07:44.943Z,17.28
2017-03-12T07:08:10.503Z,17.29
2017-03-12T07:08:36.067Z,17.29
2017-03-12T07:09:01.640Z,17.29
2017-03-12T07:09:27.203Z,17.3
2017-03-12T07:09:52.782Z,17.28
2017-03-12T07:10:18.352Z,17.28
2017-03-12T07:10:43.932Z,17.28
2017-03-12T07:11:09.488Z,17.29
2017-03-12T07:11:35.160Z,17.35
2017-03-12T07:12:00.716Z,17.35
2017-03-12T07:12:26.266Z,17.28
2017-03-12T07:12:51.808Z,17.26
2017-03-12T07:13:17.371Z,17.29
2017-03-12T07:13:42.944Z,17.29
2017-03-12T07:14:08.499Z,17.26
2017-03-12T07:14:34.067Z,17.29
2017-03-12T07:14:59.649Z,17.32
2017-03-12T07:15:25.194Z,17.3
2017-03-12T07:15:50.775Z,17.29
2017-03-12T07:16:16.364Z,17.29
2017-03-12T07:16:42.077Z,17.29
2017-03-12T07:17:07.641Z,17.29
2017-03-12T07:17:33.188Z,17.23
2017-03-12T07:17:58.864Z,17.29
2017-03-12T07:18:24.443Z,17.3
2017-03-12T07:18:50.014Z,17.32
2017-03-12T07:19:15.581Z,17.29
2017-03-12T07:19:41.146Z,17.3
2017-03-12T07:20:06.705Z,17.3
2017-03-12T07:20:32.285Z,17.26
2017-03-12T07:20:57.845Z,17.33
2017-03-12T07:21:23.498Z,17.28
2017-03-12T07:21:50.049Z,17.29
2017-03-12T07:22:15.622Z,17.29
2017-03-12T07:22:41.181Z,17.23
2017-03-12T07:23:06.741Z,17.29
2017-03-12T07:23:32.327Z,17.22
2017-03-12T07:23:57.961Z,17.26
2017-03-12T07:24:23.535Z,17.32
2017-03-12T07:25:11.709Z,17.25
2017-03-12T07:25:37.277Z,17.28
2017-03-12T07:26:02.858Z,17.28
2017-03-12T07:26:28.502Z,17.3
2017-03-12T07:26:54.623Z,17.28
2017-03-12T07:27:20.956Z,17.28
2017-03-12T07:27:47.098Z,17.29
2017-03-12T07:28:12.716Z,17.26
2017-03-12T07:28:38.296Z,17.3
2017-03-12T07:29:03.835Z,17.29
2017-03-12T07:29:29.423Z,17.26
2017-03-12T07:29:54.963Z,17.3
2017-03-12T07:30:21.099Z,17.23
2017-03-12T07:30:46.098Z,17.23
2017-03-12T07:31:11.679Z,17.25
2017-03-12T07:31:37.225Z,17.28
2017-03-12T07:32:02.991Z,17.28
2017-03-12T07:32:28.543Z,17.25
2017-03-12T07:32:54.080Z,17.28
2017-03-12T07:33:19.638Z,17.3
2017-03-12T07:33:45.184Z,17.29
2017-03-12T07:34:10.823Z,17.26
2017-03-12T07:34:36.372Z,17.28
2017-03-12T07:35:01.908Z,17.28
2017-03-12T07:35:27.448Z,17.28
2017-03-12T07:35:53.176Z,17.22
2017-03-12T07:36:18.940Z,17.26
2017-03-12T07:36:45.194Z,17.29
2017-03-12T07:37:10.741Z,17.26
2017-03-12T07:37:36.306Z,17.3
2017-03-12T07:38:01.898Z,17.29
2017-03-12T07:38:27.553Z,17.28
2017-03-12T07:38:53.161Z,17.23
2017-03-12T07:39:18.744Z,17.23
2017-03-12T07:39:44.320Z,17.25
2017-03-12T07:40:09.896Z,17.29
2017-03-12T07:40:35.456Z,17.25
2017-03-12T07:41:01.013Z,17.23
2017-03-12T07:41:26.562Z,17.32
2017-03-12T07:41:52.152Z,17.29
2017-03-12T07:42:17.726Z,17.25
2017-03-12T07:42:43.292Z,17.23
2017-03-12T07:43:08.871Z,17.25
2017-03-12T07:43:34.451Z,17.28
2017-03-12T07:44:00.160Z,17.28
2017-03-12T07:44:25.710Z,17.2
2017-03-12T07:44:51.274Z,17.26
2017-03-12T07:45:17.460Z,17.28
2017-03-12T07:45:43.018Z,17.25
2017-03-12T07:46:09.635Z,17.22
2017-03-12T07:46:35.201Z,17.28
2017-03-12T07:47:00.761Z,17.2
2017-03-12T07:47:26.307Z,17.18
2017-03-12T07:47:51.868Z,17.3
2017-03-12T07:48:17.441Z,17.22
2017-03-12T07:48:43.000Z,17.26
2017-03-12T07:49:08.560Z,17.26
2017-03-12T07:49:34.164Z,17.2
2017-03-12T07:49:59.743Z,17.25
2017-03-12T07:50:25.837Z,17.26
2017-03-12T07:50:51.410Z,17.3
2017-03-12T07:51:16.976Z,17.26
2017-03-12T07:51:42.551Z,17.26
2017-03-12T07:52:09.614Z,17.23
2017-03-12T07:52:34.226Z,17.28
2017-03-12T07:52:59.797Z,17.23
2017-03-12T07:53:25.366Z,17.26
2017-03-12T07:53:50.947Z,17.28
2017-03-12T07:54:17.119Z,17.22
2017-03-12T07:54:42.071Z,17.3
2017-03-12T07:55:07.653Z,17.25
2017-03-12T07:55:33.259Z,17.18
2017-03-12T07:55:58.832Z,17.26
2017-03-12T07:56:24.389Z,17.25
2017-03-12T07:56:49.961Z,17.26
2017-03-12T07:57:15.511Z,17.23
2017-03-12T07:57:41.138Z,17.26
2017-03-12T07:58:06.707Z,17.25
2017-03-12T07:58:32.276Z,17.26
2017-03-12T07:58:57.846Z,17.2
2017-03-12T07:59:23.402Z,17.25
2017-03-12T07:59:48.966Z,17.23
2017-03-12T08:00:14.550Z,17.28
2017-03-12T08:00:40.141Z,17.23
2017-03-12T08:01:05.714Z,17.28
2017-03-12T08:01:31.292Z,17.28
2017-03-12T08:01:56.861Z,17.22
2017-03-12T08:02:22.443Z,17.28
2017-03-12T08:02:47.999Z,17.29
2017-03-12T08:03:13.581Z,17.28
2017-03-12T08:03:39.158Z,17.2
2017-03-12T08:04:04.714Z,17.22
2017-03-12T08:04:30.277Z,17.32
2017-03-12T08:04:55.820Z,17.26
2017-03-12T08:05:21.371Z,17.26
2017-03-12T08:05:46.942Z,17.29
2017-03-12T08:06:12.500Z,17.3
2017-03-12T08:06:38.081Z,17.3
2017-03-12T08:07:03.781Z,17.26
2017-03-12T08:07:29.674Z,17.32
2017-03-12T08:07:55.629Z,17.28
2017-03-12T08:08:21.235Z,17.22
2017-03-12T08:08:46.807Z,17.2
2017-03-12T08:09:12.385Z,17.23
2017-03-12T08:09:37.998Z,17.29
2017-03-12T08:10:03.639Z,17.25
2017-03-12T08:10:29.218Z,17.23
2017-03-12T08:10:54.807Z,17.26
2017-03-12T08:11:20.364Z,17.25
2017-03-12T08:11:45.928Z,17.28
2017-03-12T08:12:11.608Z,17.28
2017-03-12T08:12:37.171Z,17.29
2017-03-12T08:13:02.850Z,17.26
2017-03-12T08:13:28.541Z,17.22
2017-03-12T08:13:54.152Z,17.25
2017-03-12T08:14:19.965Z,17.25
2017-03-12T08:14:46.618Z,17.28
2017-03-12T08:15:12.425Z,17.25
2017-03-12T08:15:38.003Z,17.23
2017-03-12T08:16:03.552Z,17.29
2017-03-12T08:16:29.111Z,17.2
2017-03-12T08:16:54.669Z,17.3
2017-03-12T08:17:20.220Z,17.23
2017-03-12T08:17:45.769Z,17.25
2017-03-12T08:18:11.326Z,17.25
2017-03-12T08:18:37.006Z,17.26
2017-03-12T08:19:30.364Z,17.25
2017-03-12T08:19:55.931Z,17.18
2017-03-12T08:20:21.510Z,17.22
2017-03-12T08:20:47.130Z,17.2
2017-03-12T08:21:12.809Z,17.25
2017-03-12T08:21:38.493Z,17.26
2017-03-12T08:22:04.044Z,17.23
2017-03-12T08:22:29.570Z,17.22
2017-03-12T08:22:55.226Z,17.28
2017-03-12T08:23:20.767Z,17.28
2017-03-12T08:23:46.375Z,17.23
2017-03-12T08:24:12.079Z,17.26
2017-03-12T08:24:37.644Z,17.26
2017-03-12T08:25:03.269Z,17.2
2017-03-12T08:25:28.854Z,17.29
2017-03-12T08:25:54.409Z,17.23
2017-03-12T08:26:20.073Z,17.2
2017-03-12T08:26:45.647Z,17.26
2017-03-12T08:27:11.255Z,17.23
2017-03-12T08:27:36.807Z,17.25
2017-03-12T08:28:02.358Z,17.22
2017-03-12T08:28:27.910Z,17.26
2017-03-12T08:28:53.489Z,17.22
2017-03-12T08:29:19.039Z,17.26
2017-03-12T08:29:44.594Z,17.28
2017-03-12T08:30:10.153Z,17.28
2017-03-12T08:30:35.786Z,17.28
2017-03-12T08:31:01.354Z,17.26
2017-03-12T08:31:26.915Z,17.25
2017-03-12T08:31:52.469Z,17.26
2017-03-12T08:32:18.026Z,17.18
2017-03-12T08:32:44.209Z,17.26
2017-03-12T08:33:09.350Z,17.3
2017-03-12T08:33:34.906Z,17.26
2017-03-12T08:34:00.454Z,17.23
2017-03-12T08:34:26.004Z,17.3
2017-03-12T08:34:51.558Z,17.25
2017-03-12T08:35:17.115Z,17.25
2017-03-12T08:35:42.671Z,17.2
2017-03-12T08:36:08.232Z,17.23
2017-03-12T08:36:33.795Z,17.23
2017-03-12T08:36:59.464Z,17.26
2017-03-12T08:37:25.009Z,17.22
2017-03-12T08:37:50.570Z,17.26
2017-03-12T08:38:16.255Z,17.25
2017-03-12T08:38:41.824Z,17.3
2017-03-12T08:39:07.399Z,17.28
2017-03-12T08:39:32.982Z,17.23
2017-03-12T08:39:58.551Z,17.22
2017-03-12T08:40:24.115Z,17.26
2017-03-12T08:40:49.687Z,17.23
2017-03-12T08:41:15.255Z,17.3
2017-03-12T08:41:40.842Z,17.32
2017-03-12T08:42:06.440Z,17.23
2017-03-12T08:42:32.308Z,17.28
2017-03-12T08:42:57.865Z,17.26
2017-03-12T08:43:23.789Z,17.25
2017-03-12T08:43:49.450Z,17.25
2017-03-12T08:44:15.075Z,17.25
2017-03-12T08:44:40.920Z,17.28
2017-03-12T08:45:06.384Z,17.28
2017-03-12T08:45:31.967Z,17.29
2017-03-12T08:45:57.580Z,17.26
2017-03-12T08:46:23.153Z,17.18
2017-03-12T08:46:48.723Z,17.26
2017-03-12T08:47:14.288Z,17.23
2017-03-12T08:47:39.959Z,17.25
2017-03-12T08:48:05.551Z,17.25
2017-03-12T08:48:31.099Z,17.23
2017-03-12T08:48:56.669Z,17.23
2017-03-12T08:49:22.254Z,17.26
2017-03-12T08:49:47.818Z,17.26
2017-03-12T08:50:13.395Z,17.22
2017-03-12T08:50:39.026Z,17.22
2017-03-12T08:51:04.643Z,17.28
2017-03-12T08:51:30.192Z,17.28
2017-03-12T08:51:55.773Z,17.28
2017-03-12T08:52:21.346Z,17.28
2017-03-12T08:52:46.898Z,17.28
2017-03-12T08:53:12.454Z,17.18
2017-03-12T08:53:38.021Z,17.28
2017-03-12T08:54:03.640Z,17.22
2017-03-12T08:54:29.206Z,17.28
2017-03-12T08:54:54.761Z,17.25
2017-03-12T08:55:20.302Z,17.26
2017-03-12T08:55:45.922Z,17.18
2017-03-12T08:56:11.468Z,17.28
2017-03-12T08:56:37.031Z,17.25
2017-03-12T08:57:02.671Z,17.28
2017-03-12T08:57:28.272Z,17.18
2017-03-12T08:57:53.921Z,17.29
2017-03-12T08:58:19.479Z,17.23
2017-03-12T08:58:45.761Z,17.2
2017-03-12T08:59:11.334Z,17.25
2017-03-12T08:59:37.584Z,17.25
2017-03-12T09:00:03.140Z,17.17
2017-03-12T09:00:28.717Z,17.28
2017-03-12T09:00:54.341Z,17.25
2017-03-12T09:01:19.911Z,17.28
2017-03-12T09:01:45.474Z,17.28
2017-03-12T09:02:11.032Z,17.23
2017-03-12T09:02:36.573Z,17.25
2017-03-12T09:03:02.117Z,17.29
2017-03-12T09:03:28.216Z,17.26
2017-03-12T09:03:53.248Z,17.25
2017-03-12T09:04:19.133Z,17.17
2017-03-12T09:04:44.750Z,17.29
2017-03-12T09:05:10.331Z,17.28
2017-03-12T09:05:36.050Z,17.3
2017-03-12T09:06:02.954Z,17.26
2017-03-12T09:06:28.553Z,17.26
2017-03-12T09:06:54.130Z,17.28
2017-03-12T09:07:19.703Z,17.23
2017-03-12T09:07:45.271Z,17.3
2017-03-12T09:08:10.843Z,17.28
2017-03-12T09:08:36.432Z,17.23
2017-03-12T09:09:02.004Z,17.26
2017-03-12T09:09:27.591Z,17.22
2017-03-12T09:09:53.151Z,17.26
2017-03-12T09:10:18.769Z,17.25
2017-03-12T09:10:44.481Z,17.3
2017-03-12T09:11:10.208Z,17.23
2017-03-12T09:11:35.761Z,17.23
2017-03-12T09:12:01.324Z,17.28
2017-03-12T09:12:27.708Z,17.3
2017-03-12T09:12:53.357Z,17.32
2017-03-12T09:13:18.902Z,17.25
2017-03-12T09:13:44.601Z,17.23
2017-03-12T09:14:10.163Z,17.22
2017-03-12T09:14:35.714Z,17.29
2017-03-12T09:15:01.301Z,17.26
2017-03-12T09:15:26.857Z,17.28
2017-03-12T09:15:52.438Z,17.29
2017-03-12T09:16:18.002Z,17.2
2017-03-12T09:16:44.476Z,17.23
2017-03-12T09:17:10.033Z,17.25
2017-03-12T09:17:35.615Z,17.28
2017-03-12T09:18:01.179Z,17.23
2017-03-12T09:18:26.871Z,17.23
2017-03-12T09:18:52.442Z,17.26
2017-03-12T09:19:18.014Z,17.22
2017-03-12T09:19:43.575Z,17.26
2017-03-12T09:20:09.143Z,17.23
2017-03-12T09:20:34.715Z,17.29
2017-03-12T09:21:00.278Z,17.26
2017-03-12T09:21:25.833Z,17.23
2017-03-12T09:21:51.413Z,17.28
2017-03-12T09:22:17.007Z,17.28
2017-03-12T09:22:43.619Z,17.26
2017-03-12T09:23:09.406Z,17.23
2017-03-12T09:23:34.953Z,17.23
2017-03-12T09:24:00.537Z,17.3
2017-03-12T09:24:26.169Z,17.28
2017-03-12T09:24:51.729Z,17.25
2017-03-12T09:25:17.312Z,17.22
2017-03-12T09:25:42.874Z,17.26
2017-03-12T09:26:08.503Z,17.29
2017-03-12T09:26:34.062Z,17.25
2017-03-12T09:27:00.392Z,17.28
2017-03-12T09:27:25.999Z,17.28
2017-03-12T09:27:51.563Z,17.26
2017-03-12T09:28:17.130Z,17.28
2017-03-12T09:28:42.708Z,17.32
2017-03-12T09:29:08.289Z,17.28
2017-03-12T09:29:33.864Z,17.26
2017-03-12T09:29:59.427Z,17.26
2017-03-12T09:30:25.004Z,17.29
2017-03-12T09:30:50.560Z,17.28
2017-03-12T09:31:16.187Z,17.23
2017-03-12T09:31:41.759Z,17.23
2017-03-12T09:32:08.030Z,17.23
2017-03-12T09:32:33.614Z,17.3
2017-03-12T09:32:59.197Z,17.22
2017-03-12T09:33:24.744Z,17.3
2017-03-12T09:33:50.320Z,17.23
2017-03-12T09:34:15.873Z,17.29
2017-03-12T09:34:41.456Z,17.3
2017-03-12T09:35:07.028Z,17.29
2017-03-12T09:35:32.595Z,17.25
2017-03-12T09:35:58.151Z,17.28
2017-03-12T09:36:23.730Z,17.3
2017-03-12T09:36:49.320Z,17.28
2017-03-12T09:37:14.895Z,17.23
2017-03-12T09:37:40.461Z,17.28
2017-03-12T09:38:06.013Z,17.28
2017-03-12T09:38:31.597Z,17.28
2017-03-12T09:38:57.296Z,17.22
2017-03-12T09:39:22.853Z,17.25
2017-03-12T09:39:48.410Z,17.2
2017-03-12T09:40:14.083Z,17.25
2017-03-12T09:40:39.650Z,17.28
2017-03-12T09:41:05.226Z,17.22
2017-03-12T09:41:30.821Z,17.26
2017-03-12T09:41:56.439Z,17.32
2017-03-12T09:42:22.014Z,17.26
2017-03-12T09:42:47.582Z,17.25
2017-03-12T09:43:13.181Z,17.28
2017-03-12T09:43:38.845Z,17.22
2017-03-12T09:44:04.399Z,17.33
2017-03-12T09:44:29.965Z,17.23
2017-03-12T09:44:55.653Z,17.26
2017-03-12T09:45:21.211Z,17.29
2017-03-12T09:45:46.877Z,17.26
2017-03-12T09:46:13.241Z,17.3
2017-03-12T09:46:38.756Z,17.3
2017-03-12T09:47:04.872Z,17.26
2017-03-12T09:47:30.549Z,17.28
2017-03-12T09:47:56.112Z,17.28
2017-03-12T09:48:21.671Z,17.26
2017-03-12T09:48:47.222Z,17.25
2017-03-12T09:49:12.767Z,17.22
2017-03-12T09:49:38.378Z,17.29
2017-03-12T09:50:03.972Z,17.26
2017-03-12T09:50:29.552Z,17.25
2017-03-12T09:50:55.102Z,17.29
2017-03-12T09:51:20.658Z,17.22
2017-03-12T09:51:46.198Z,17.25
2017-03-12T09:52:11.844Z,17.3
2017-03-12T09:52:37.463Z,17.25
2017-03-12T09:53:03.078Z,17.25
2017-03-12T09:53:28.665Z,17.22
2017-03-12T09:53:54.220Z,17.26
2017-03-12T09:54:19.793Z,17.28
2017-03-12T09:54:45.708Z,17.3
2017-03-12T09:55:11.311Z,17.35
2017-03-12T09:55:36.936Z,17.2
2017-03-12T09:56:02.538Z,17.29
2017-03-12T09:56:28.123Z,17.32
2017-03-12T09:56:53.687Z,17.25
2017-03-12T09:57:19.321Z,17.29
2017-03-12T09:57:44.915Z,17.22
2017-03-12T09:58:10.490Z,17.29
2017-03-12T09:58:36.179Z,17.22
2017-03-12T09:59:01.782Z,17.23
2017-03-12T09:59:27.329Z,17.23
2017-03-12T09:59:52.922Z,17.23
2017-03-12T10:00:18.524Z,17.3
2017-03-12T10:00:44.097Z,17.2
2017-03-12T10:01:09.764Z,17.29
2017-03-12T10:01:35.327Z,17.23
2017-03-12T10:02:00.922Z,17.23
2017-03-12T10:02:26.491Z,17.26
2017-03-12T10:02:52.074Z,17.3
2017-03-12T10:03:17.685Z,17.23
2017-03-12T10:03:43.267Z,17.26
2017-03-12T10:04:08.849Z,17.2
2017-03-12T10:04:34.440Z,17.23
2017-03-12T10:04:59.999Z,17.28
2017-03-12T10:05:25.572Z,17.2
2017-03-12T10:05:51.145Z,17.25
2017-03-12T10:06:16.715Z,17.18
2017-03-12T10:06:42.349Z,17.25
2017-03-12T10:07:07.932Z,17.22
2017-03-12T10:07:33.498Z,17.23
2017-03-12T10:07:59.050Z,17.28
2017-03-12T10:08:24.628Z,17.25
2017-03-12T10:08:50.273Z,17.25
2017-03-12T10:09:16.007Z,17.28
2017-03-12T10:09:41.608Z,17.26
2017-03-12T10:10:07.222Z,17.3
2017-03-12T10:10:32.780Z,17.23
2017-03-12T10:10:58.372Z,17.22
2017-03-12T10:11:24.540Z,17.2
2017-03-12T10:11:50.094Z,17.25
2017-03-12T10:12:15.653Z,17.28
2017-03-12T10:12:41.225Z,17.25
2017-03-12T10:13:06.788Z,17.28
2017-03-12T10:13:32.460Z,17.2
2017-03-12T10:13:58.062Z,17.25
2017-03-12T10:14:23.611Z,17.26
2017-03-12T10:14:49.150Z,17.25
2017-03-12T10:15:14.730Z,17.26
2017-03-12T10:15:40.303Z,17.23
2017-03-12T10:16:05.873Z,17.22
2017-03-12T10:16:31.465Z,17.25
2017-03-12T10:16:57.052Z,17.18
2017-03-12T10:17:22.769Z,17.25
2017-03-12T10:17:48.907Z,17.3
2017-03-12T10:18:14.489Z,17.22
2017-03-12T10:18:40.049Z,17.28
2017-03-12T10:19:05.763Z,17.25
2017-03-12T10:19:31.357Z,17.32
2017-03-12T10:19:57.014Z,17.26
2017-03-12T10:20:22.626Z,17.29
2017-03-12T10:20:48.309Z,17.25
2017-03-12T10:21:14.637Z,17.3
2017-03-12T10:21:40.233Z,17.2
2017-03-12T10:22:05.790Z,17.2
2017-03-12T10:22:31.416Z,17.3
2017-03-12T10:22:57.034Z,17.25
2017-03-12T10:23:22.772Z,17.28
2017-03-12T10:23:48.364Z,17.28
2017-03-12T10:24:14.764Z,17.29
2017-03-12T10:24:40.521Z,17.3
2017-03-12T10:25:06.067Z,17.29
2017-03-12T10:25:31.605Z,17.28
2017-03-12T10:25:57.180Z,17.3
2017-03-12T10:26:23.555Z,17.32
2017-03-12T10:26:49.151Z,17.26
2017-03-12T10:27:15.341Z,17.29
2017-03-12T10:27:40.880Z,17.25
2017-03-12T10:28:06.465Z,17.22
2017-03-12T10:28:32.041Z,17.26
2017-03-12T10:28:57.642Z,17.32
2017-03-12T10:29:23.229Z,17.36
2017-03-12T10:29:48.848Z,17.32
2017-03-12T10:30:14.507Z,17.25
2017-03-12T10:30:40.092Z,17.32
2017-03-12T10:31:05.826Z,17.29
2017-03-12T10:31:31.428Z,17.26
2017-03-12T10:31:57.029Z,17.26
2017-03-12T10:32:22.601Z,17.28
2017-03-12T10:32:48.937Z,17.28
2017-03-12T10:33:14.578Z,17.23
2017-03-12T10:33:40.157Z,17.29
2017-03-12T10:34:05.730Z,17.28
2017-03-12T10:34:31.323Z,17.2
2017-03-12T10:34:56.919Z,17.28
2017-03-12T10:35:22.566Z,17.26
2017-03-12T10:35:48.168Z,17.32
2017-03-12T10:36:13.724Z,17.25